sensor_id;sensor_type;location;lat;lon;timestamp;P1;durP1;ratioP1;P2;durP2;ratioP2
55076;SDS011;40971;44.702;11.030;2022-09-13T00:00:14;6.97;;;2.30;;
55076;SDS011;40971;44.702;11.030;2022-09-13T00:02:40;4.72;;;1.98;;
55076;SDS011;40971;44.702;11.030;2022-09-13T00:05:05;6.63;;;1.92;;
55076;SDS011;40971;44.702;11.030;2022-09-13T00:07:31;6.80;;;1.98;;
55076;SDS011;40971;44.702;11.030;2022-09-13T00:09:57;5.47;;;1.70;;
55076;SDS011;40971;44.702;11.030;2022-09-13T00:12:22;12.63;;;1.92;;
55076;SDS011;40971;44.702;11.030;2022-09-13T00:14:48;7.70;;;1.98;;
55076;SDS011;40971;44.702;11.030;2022-09-13T00:17:13;4.65;;;2.00;;
55076;SDS011;40971;44.702;11.030;2022-09-13T00:19:39;5.05;;;2.08;;
55076;SDS011;40971;44.702;11.030;2022-09-13T00:22:04;6.20;;;2.15;;
55076;SDS011;40971;44.702;11.030;2022-09-13T00:24:30;7.90;;;2.15;;
55076;SDS011;40971;44.702;11.030;2022-09-13T00:26:58;10.48;;;2.03;;
55076;SDS011;40971;44.702;11.030;2022-09-13T00:29:24;7.03;;;2.03;;
55076;SDS011;40971;44.702;11.030;2022-09-13T00:31:50;8.05;;;1.83;;
55076;SDS011;40971;44.702;11.030;2022-09-13T00:34:16;4.72;;;1.80;;
55076;SDS011;40971;44.702;11.030;2022-09-13T00:36:41;8.43;;;2.10;;
55076;SDS011;40971;44.702;11.030;2022-09-13T00:39:07;5.72;;;1.83;;
55076;SDS011;40971;44.702;11.030;2022-09-13T00:41:34;5.07;;;1.83;;
55076;SDS011;40971;44.702;11.030;2022-09-13T00:44:00;6.88;;;2.03;;
55076;SDS011;40971;44.702;11.030;2022-09-13T00:46:29;12.57;;;2.67;;
55076;SDS011;40971;44.702;11.030;2022-09-13T00:49:07;10.05;;;2.40;;
55076;SDS011;40971;44.702;11.030;2022-09-13T00:51:34;8.80;;;2.90;;
55076;SDS011;40971;44.702;11.030;2022-09-13T00:54:00;6.68;;;2.60;;
55076;SDS011;40971;44.702;11.030;2022-09-13T00:56:32;6.80;;;2.50;;
55076;SDS011;40971;44.702;11.030;2022-09-13T00:59:08;8.63;;;2.28;;
55076;SDS011;40971;44.702;11.030;2022-09-13T01:01:40;7.65;;;2.40;;
55076;SDS011;40971;44.702;11.030;2022-09-13T01:04:13;6.78;;;2.70;;
55076;SDS011;40971;44.702;11.030;2022-09-13T01:06:41;6.10;;;2.35;;
55076;SDS011;40971;44.702;11.030;2022-09-13T01:09:09;12.95;;;2.50;;
55076;SDS011;40971;44.702;11.030;2022-09-13T01:14:09;6.85;;;2.45;;
55076;SDS011;40971;44.702;11.030;2022-09-13T01:16:35;7.07;;;2.20;;
55076;SDS011;40971;44.702;11.030;2022-09-13T01:19:01;7.53;;;2.72;;
55076;SDS011;40971;44.702;11.030;2022-09-13T01:24:46;5.93;;;2.08;;
55076;SDS011;40971;44.702;11.030;2022-09-13T01:30:20;6.65;;;2.42;;
55076;SDS011;40971;44.702;11.030;2022-09-13T01:41:04;19.17;;;3.05;;
55076;SDS011;40971;44.702;11.030;2022-09-13T01:50:11;8.90;;;3.00;;
55076;SDS011;40971;44.702;11.030;2022-09-13T01:57:54;7.25;;;3.80;;
55076;SDS011;40971;44.702;11.030;2022-09-13T02:03:06;12.65;;;4.10;;
55076;SDS011;40971;44.702;11.030;2022-09-13T02:05:40;8.55;;;2.60;;
55076;SDS011;40971;44.702;11.030;2022-09-13T02:08:18;6.68;;;2.40;;
55076;SDS011;40971;44.702;11.030;2022-09-13T02:16:36;6.93;;;2.03;;
55076;SDS011;40971;44.702;11.030;2022-09-13T02:19:09;9.60;;;2.13;;
55076;SDS011;40971;44.702;11.030;2022-09-13T02:21:42;5.67;;;2.27;;
55076;SDS011;40971;44.702;11.030;2022-09-13T02:24:14;8.38;;;2.47;;
55076;SDS011;40971;44.702;11.030;2022-09-13T02:26:43;11.48;;;3.85;;
55076;SDS011;40971;44.702;11.030;2022-09-13T02:29:12;17.55;;;3.15;;
55076;SDS011;40971;44.702;11.030;2022-09-13T02:31:55;6.80;;;3.17;;
55076;SDS011;40971;44.702;11.030;2022-09-13T02:34:46;14.27;;;5.28;;
55076;SDS011;40971;44.702;11.030;2022-09-13T02:37:16;12.65;;;6.53;;
55076;SDS011;40971;44.702;11.030;2022-09-13T02:39:45;12.85;;;6.15;;
55076;SDS011;40971;44.702;11.030;2022-09-13T02:42:22;10.07;;;4.70;;
55076;SDS011;40971;44.702;11.030;2022-09-13T02:44:54;13.48;;;4.35;;
55076;SDS011;40971;44.702;11.030;2022-09-13T02:57:34;10.38;;;5.20;;
55076;SDS011;40971;44.702;11.030;2022-09-13T03:00:05;10.55;;;4.90;;
55076;SDS011;40971;44.702;11.030;2022-09-13T03:02:31;15.27;;;6.15;;
55076;SDS011;40971;44.702;11.030;2022-09-13T03:04:59;11.32;;;5.03;;
55076;SDS011;40971;44.702;11.030;2022-09-13T03:07:26;15.40;;;4.85;;
55076;SDS011;40971;44.702;11.030;2022-09-13T03:09:57;10.63;;;5.05;;
55076;SDS011;40971;44.702;11.030;2022-09-13T03:16:18;10.02;;;5.13;;
55076;SDS011;40971;44.702;11.030;2022-09-13T03:21:07;11.63;;;5.00;;
55076;SDS011;40971;44.702;11.030;2022-09-13T03:26:30;13.68;;;4.60;;
55076;SDS011;40971;44.702;11.030;2022-09-13T03:37:06;12.07;;;5.00;;
55076;SDS011;40971;44.702;11.030;2022-09-13T03:39:42;11.20;;;5.68;;
55076;SDS011;40971;44.702;11.030;2022-09-13T03:42:21;10.83;;;6.17;;
55076;SDS011;40971;44.702;11.030;2022-09-13T03:44:51;13.68;;;7.30;;
55076;SDS011;40971;44.702;11.030;2022-09-13T03:47:20;18.08;;;6.20;;
55076;SDS011;40971;44.702;11.030;2022-09-13T03:49:47;11.68;;;7.18;;
55076;SDS011;40971;44.702;11.030;2022-09-13T03:52:15;16.63;;;7.65;;
55076;SDS011;40971;44.702;11.030;2022-09-13T03:54:41;15.40;;;9.13;;
55076;SDS011;40971;44.702;11.030;2022-09-13T03:57:11;17.58;;;7.35;;
55076;SDS011;40971;44.702;11.030;2022-09-13T04:02:34;13.13;;;7.72;;
55076;SDS011;40971;44.702;11.030;2022-09-13T04:04:59;19.30;;;9.23;;
55076;SDS011;40971;44.702;11.030;2022-09-13T04:07:25;17.15;;;9.35;;
55076;SDS011;40971;44.702;11.030;2022-09-13T04:09:51;17.88;;;10.18;;
55076;SDS011;40971;44.702;11.030;2022-09-13T04:12:16;13.13;;;8.25;;
55076;SDS011;40971;44.702;11.030;2022-09-13T04:14:43;14.80;;;8.63;;
55076;SDS011;40971;44.702;11.030;2022-09-13T04:17:09;14.40;;;7.90;;
55076;SDS011;40971;44.702;11.030;2022-09-13T04:19:35;11.85;;;6.75;;
55076;SDS011;40971;44.702;11.030;2022-09-13T04:22:00;13.38;;;7.95;;
55076;SDS011;40971;44.702;11.030;2022-09-13T04:24:26;14.13;;;7.53;;
55076;SDS011;40971;44.702;11.030;2022-09-13T04:26:53;12.77;;;8.13;;
55076;SDS011;40971;44.702;11.030;2022-09-13T04:29:20;16.90;;;7.88;;
55076;SDS011;40971;44.702;11.030;2022-09-13T04:31:46;13.50;;;8.15;;
55076;SDS011;40971;44.702;11.030;2022-09-13T04:34:13;16.05;;;7.90;;
55076;SDS011;40971;44.702;11.030;2022-09-13T04:36:39;12.00;;;6.43;;
55076;SDS011;40971;44.702;11.030;2022-09-13T04:39:04;13.43;;;7.07;;
55076;SDS011;40971;44.702;11.030;2022-09-13T04:41:30;24.58;;;6.93;;
55076;SDS011;40971;44.702;11.030;2022-09-13T04:43:57;25.15;;;7.30;;
55076;SDS011;40971;44.702;11.030;2022-09-13T04:46:24;33.28;;;8.98;;
55076;SDS011;40971;44.702;11.030;2022-09-13T04:48:50;24.77;;;9.40;;
55076;SDS011;40971;44.702;11.030;2022-09-13T04:51:16;31.92;;;10.48;;
55076;SDS011;40971;44.702;11.030;2022-09-13T04:53:42;20.80;;;10.23;;
55076;SDS011;40971;44.702;11.030;2022-09-13T04:56:09;18.58;;;10.25;;
55076;SDS011;40971;44.702;11.030;2022-09-13T04:58:35;30.00;;;11.52;;
55076;SDS011;40971;44.702;11.030;2022-09-13T05:01:01;27.33;;;10.90;;
55076;SDS011;40971;44.702;11.030;2022-09-13T05:03:31;21.13;;;10.77;;
55076;SDS011;40971;44.702;11.030;2022-09-13T05:06:04;21.63;;;8.32;;
55076;SDS011;40971;44.702;11.030;2022-09-13T05:08:31;17.33;;;8.55;;
55076;SDS011;40971;44.702;11.030;2022-09-13T05:10:57;17.70;;;8.68;;
55076;SDS011;40971;44.702;11.030;2022-09-13T05:13:23;22.90;;;10.00;;
55076;SDS011;40971;44.702;11.030;2022-09-13T05:15:49;14.73;;;8.00;;
55076;SDS011;40971;44.702;11.030;2022-09-13T05:18:14;20.80;;;10.30;;
55076;SDS011;40971;44.702;11.030;2022-09-13T05:20:40;18.80;;;10.05;;
55076;SDS011;40971;44.702;11.030;2022-09-13T05:23:05;14.38;;;9.30;;
55076;SDS011;40971;44.702;11.030;2022-09-13T05:25:31;17.80;;;11.63;;
55076;SDS011;40971;44.702;11.030;2022-09-13T05:27:56;29.67;;;12.00;;
55076;SDS011;40971;44.702;11.030;2022-09-13T05:30:22;21.92;;;12.00;;
55076;SDS011;40971;44.702;11.030;2022-09-13T05:32:47;17.70;;;10.60;;
55076;SDS011;40971;44.702;11.030;2022-09-13T05:35:13;21.30;;;10.70;;
55076;SDS011;40971;44.702;11.030;2022-09-13T05:37:38;17.60;;;10.48;;
55076;SDS011;40971;44.702;11.030;2022-09-13T05:40:04;18.27;;;10.70;;
55076;SDS011;40971;44.702;11.030;2022-09-13T05:42:30;22.75;;;11.00;;
55076;SDS011;40971;44.702;11.030;2022-09-13T05:44:55;29.55;;;11.15;;
55076;SDS011;40971;44.702;11.030;2022-09-13T05:47:24;19.92;;;10.07;;
55076;SDS011;40971;44.702;11.030;2022-09-13T05:49:49;24.75;;;9.55;;
55076;SDS011;40971;44.702;11.030;2022-09-13T05:52:15;28.00;;;11.52;;
55076;SDS011;40971;44.702;11.030;2022-09-13T05:54:40;24.60;;;10.55;;
55076;SDS011;40971;44.702;11.030;2022-09-13T05:57:06;31.60;;;10.68;;
55076;SDS011;40971;44.702;11.030;2022-09-13T05:59:31;34.40;;;11.02;;
55076;SDS011;40971;44.702;11.030;2022-09-13T06:01:57;29.00;;;11.27;;
55076;SDS011;40971;44.702;11.030;2022-09-13T06:04:23;21.40;;;11.00;;
55076;SDS011;40971;44.702;11.030;2022-09-13T06:06:48;20.63;;;10.10;;
55076;SDS011;40971;44.702;11.030;2022-09-13T06:09:14;27.85;;;11.95;;
55076;SDS011;40971;44.702;11.030;2022-09-13T06:11:39;27.83;;;11.52;;
55076;SDS011;40971;44.702;11.030;2022-09-13T06:14:05;18.20;;;9.90;;
55076;SDS011;40971;44.702;11.030;2022-09-13T06:16:31;30.40;;;10.73;;
55076;SDS011;40971;44.702;11.030;2022-09-13T06:18:57;32.00;;;11.25;;
55076;SDS011;40971;44.702;11.030;2022-09-13T06:21:23;25.95;;;11.00;;
55076;SDS011;40971;44.702;11.030;2022-09-13T06:23:49;41.50;;;11.55;;
55076;SDS011;40971;44.702;11.030;2022-09-13T06:26:17;20.02;;;10.98;;
55076;SDS011;40971;44.702;11.030;2022-09-13T06:28:47;25.90;;;11.43;;
55076;SDS011;40971;44.702;11.030;2022-09-13T06:31:14;22.40;;;10.73;;
55076;SDS011;40971;44.702;11.030;2022-09-13T06:33:41;21.40;;;11.77;;
55076;SDS011;40971;44.702;11.030;2022-09-13T06:36:11;24.33;;;11.70;;
55076;SDS011;40971;44.702;11.030;2022-09-13T06:38:45;32.70;;;11.13;;
55076;SDS011;40971;44.702;11.030;2022-09-13T06:41:21;21.92;;;10.95;;
55076;SDS011;40971;44.702;11.030;2022-09-13T06:43:52;18.85;;;11.00;;
55076;SDS011;40971;44.702;11.030;2022-09-13T06:46:19;18.45;;;10.98;;
55076;SDS011;40971;44.702;11.030;2022-09-13T06:48:45;20.08;;;11.30;;
55076;SDS011;40971;44.702;11.030;2022-09-13T06:51:13;24.02;;;11.70;;
55076;SDS011;40971;44.702;11.030;2022-09-13T06:53:43;17.55;;;10.80;;
55076;SDS011;40971;44.702;11.030;2022-09-13T06:58:36;23.98;;;9.80;;
55076;SDS011;40971;44.702;11.030;2022-09-13T07:01:12;16.67;;;9.50;;
55076;SDS011;40971;44.702;11.030;2022-09-13T07:06:16;19.95;;;8.90;;
55076;SDS011;40971;44.702;11.030;2022-09-13T07:08:43;24.15;;;8.60;;
55076;SDS011;40971;44.702;11.030;2022-09-13T07:11:10;25.77;;;9.43;;
55076;SDS011;40971;44.702;11.030;2022-09-13T07:13:37;17.42;;;9.20;;
55076;SDS011;40971;44.702;11.030;2022-09-13T07:16:04;19.15;;;8.10;;
55076;SDS011;40971;44.702;11.030;2022-09-13T07:18:31;15.48;;;8.50;;
55076;SDS011;40971;44.702;11.030;2022-09-13T07:20:57;22.40;;;6.75;;
55076;SDS011;40971;44.702;11.030;2022-09-13T07:23:25;16.40;;;6.55;;
55076;SDS011;40971;44.702;11.030;2022-09-13T07:25:54;12.40;;;6.63;;
55076;SDS011;40971;44.702;11.030;2022-09-13T07:28:26;26.73;;;6.10;;
55076;SDS011;40971;44.702;11.030;2022-09-13T07:30:53;15.25;;;5.43;;
55076;SDS011;40971;44.702;11.030;2022-09-13T07:33:18;18.50;;;5.65;;
55076;SDS011;40971;44.702;11.030;2022-09-13T07:35:44;16.23;;;5.50;;
55076;SDS011;40971;44.702;11.030;2022-09-13T07:38:09;12.18;;;5.47;;
55076;SDS011;40971;44.702;11.030;2022-09-13T07:40:35;11.90;;;5.95;;
55076;SDS011;40971;44.702;11.030;2022-09-13T07:43:01;9.35;;;5.57;;
55076;SDS011;40971;44.702;11.030;2022-09-13T07:45:26;15.60;;;5.50;;
55076;SDS011;40971;44.702;11.030;2022-09-13T07:47:52;15.93;;;6.88;;
55076;SDS011;40971;44.702;11.030;2022-09-13T07:50:19;13.32;;;6.25;;
55076;SDS011;40971;44.702;11.030;2022-09-13T07:52:44;10.85;;;6.35;;
55076;SDS011;40971;44.702;11.030;2022-09-13T07:55:10;13.18;;;6.35;;
55076;SDS011;40971;44.702;11.030;2022-09-13T07:57:35;14.27;;;6.80;;
55076;SDS011;40971;44.702;11.030;2022-09-13T08:00:01;15.02;;;6.25;;
55076;SDS011;40971;44.702;11.030;2022-09-13T08:02:27;18.48;;;5.80;;
55076;SDS011;40971;44.702;11.030;2022-09-13T08:04:52;12.27;;;6.10;;
55076;SDS011;40971;44.702;11.030;2022-09-13T08:07:18;19.55;;;6.38;;
55076;SDS011;40971;44.702;11.030;2022-09-13T08:09:43;13.50;;;6.25;;
55076;SDS011;40971;44.702;11.030;2022-09-13T08:12:08;14.68;;;6.32;;
55076;SDS011;40971;44.702;11.030;2022-09-13T08:14:34;23.40;;;7.82;;
55076;SDS011;40971;44.702;11.030;2022-09-13T08:16:59;16.13;;;7.25;;
55076;SDS011;40971;44.702;11.030;2022-09-13T08:19:26;16.02;;;7.28;;
55076;SDS011;40971;44.702;11.030;2022-09-13T08:21:51;16.25;;;7.53;;
55076;SDS011;40971;44.702;11.030;2022-09-13T08:24:18;20.23;;;7.35;;
55076;SDS011;40971;44.702;11.030;2022-09-13T08:26:45;17.45;;;6.82;;
55076;SDS011;40971;44.702;11.030;2022-09-13T08:29:11;17.50;;;7.72;;
55076;SDS011;40971;44.702;11.030;2022-09-13T08:31:37;11.93;;;6.70;;
55076;SDS011;40971;44.702;11.030;2022-09-13T08:34:03;14.48;;;7.57;;
55076;SDS011;40971;44.702;11.030;2022-09-13T08:36:28;12.50;;;6.60;;
55076;SDS011;40971;44.702;11.030;2022-09-13T08:38:55;15.98;;;7.20;;
55076;SDS011;40971;44.702;11.030;2022-09-13T08:44:15;16.70;;;6.75;;
55076;SDS011;40971;44.702;11.030;2022-09-13T08:46:50;15.23;;;7.30;;
55076;SDS011;40971;44.702;11.030;2022-09-13T08:49:32;15.52;;;7.45;;
55076;SDS011;40971;44.702;11.030;2022-09-13T08:52:19;12.95;;;6.38;;
55076;SDS011;40971;44.702;11.030;2022-09-13T08:55:07;14.15;;;6.63;;
55076;SDS011;40971;44.702;11.030;2022-09-13T08:57:47;16.60;;;8.02;;
55076;SDS011;40971;44.702;11.030;2022-09-13T09:00:30;16.50;;;7.47;;
55076;SDS011;40971;44.702;11.030;2022-09-13T09:03:09;19.90;;;6.72;;
55076;SDS011;40971;44.702;11.030;2022-09-13T09:05:45;16.42;;;7.20;;
55076;SDS011;40971;44.702;11.030;2022-09-13T09:11:08;17.85;;;7.38;;
55076;SDS011;40971;44.702;11.030;2022-09-13T09:13:46;18.42;;;7.20;;
55076;SDS011;40971;44.702;11.030;2022-09-13T09:16:32;14.23;;;6.60;;
55076;SDS011;40971;44.702;11.030;2022-09-13T09:19:05;17.20;;;7.07;;
55076;SDS011;40971;44.702;11.030;2022-09-13T09:21:38;12.63;;;6.03;;
55076;SDS011;40971;44.702;11.030;2022-09-13T09:24:05;16.23;;;6.85;;
55076;SDS011;40971;44.702;11.030;2022-09-13T09:26:31;22.58;;;7.70;;
55076;SDS011;40971;44.702;11.030;2022-09-13T09:28:58;23.95;;;7.25;;
55076;SDS011;40971;44.702;11.030;2022-09-13T09:36:38;12.60;;;6.40;;
55076;SDS011;40971;44.702;11.030;2022-09-13T09:39:11;13.50;;;5.88;;
55076;SDS011;40971;44.702;11.030;2022-09-13T09:41:40;12.60;;;5.53;;
55076;SDS011;40971;44.702;11.030;2022-09-13T09:49:45;12.57;;;6.43;;
55076;SDS011;40971;44.702;11.030;2022-09-13T09:57:53;14.00;;;6.53;;
55076;SDS011;40971;44.702;11.030;2022-09-13T10:00:22;15.40;;;6.85;;
55076;SDS011;40971;44.702;11.030;2022-09-13T10:02:51;13.95;;;7.85;;
55076;SDS011;40971;44.702;11.030;2022-09-13T10:05:21;19.50;;;6.72;;
55076;SDS011;40971;44.702;11.030;2022-09-13T10:07:57;18.23;;;7.13;;
55076;SDS011;40971;44.702;11.030;2022-09-13T10:10:30;14.43;;;5.88;;
55076;SDS011;40971;44.702;11.030;2022-09-13T10:13:03;15.88;;;5.93;;
55076;SDS011;40971;44.702;11.030;2022-09-13T10:15:31;12.77;;;6.22;;
55076;SDS011;40971;44.702;11.030;2022-09-13T10:18:03;13.75;;;5.70;;
55076;SDS011;40971;44.702;11.030;2022-09-13T10:20:38;10.65;;;4.70;;
55076;SDS011;40971;44.702;11.030;2022-09-13T10:25:38;13.23;;;4.40;;
55076;SDS011;40971;44.702;11.030;2022-09-13T10:28:05;10.05;;;4.43;;
55076;SDS011;40971;44.702;11.030;2022-09-13T10:30:37;10.05;;;4.70;;
55076;SDS011;40971;44.702;11.030;2022-09-13T10:33:24;9.73;;;3.90;;
55076;SDS011;40971;44.702;11.030;2022-09-13T10:35:55;10.43;;;2.78;;
55076;SDS011;40971;44.702;11.030;2022-09-13T10:38:31;7.03;;;2.58;;
55076;SDS011;40971;44.702;11.030;2022-09-13T10:41:00;13.63;;;3.92;;
55076;SDS011;40971;44.702;11.030;2022-09-13T10:43:29;11.15;;;4.13;;
55076;SDS011;40971;44.702;11.030;2022-09-13T10:45:56;11.32;;;3.47;;
55076;SDS011;40971;44.702;11.030;2022-09-13T10:48:23;7.57;;;4.10;;
55076;SDS011;40971;44.702;11.030;2022-09-13T10:51:00;14.77;;;3.90;;
55076;SDS011;40971;44.702;11.030;2022-09-13T10:56:07;20.10;;;4.30;;
55076;SDS011;40971;44.702;11.030;2022-09-13T10:58:44;9.38;;;3.20;;
55076;SDS011;40971;44.702;11.030;2022-09-13T11:06:56;9.85;;;4.15;;
55076;SDS011;40971;44.702;11.030;2022-09-13T11:17:33;10.38;;;2.55;;
55076;SDS011;40971;44.702;11.030;2022-09-13T11:20:03;12.30;;;2.60;;
55076;SDS011;40971;44.702;11.030;2022-09-13T11:22:47;9.05;;;2.53;;
55076;SDS011;40971;44.702;11.030;2022-09-13T11:25:38;7.38;;;2.30;;
55076;SDS011;40971;44.702;11.030;2022-09-13T11:31:33;14.60;;;3.35;;
55076;SDS011;40971;44.702;11.030;2022-09-13T11:34:09;8.57;;;2.40;;
55076;SDS011;40971;44.702;11.030;2022-09-13T11:42:45;11.60;;;3.05;;
55076;SDS011;40971;44.702;11.030;2022-09-13T11:45:23;11.43;;;2.72;;
55076;SDS011;40971;44.702;11.030;2022-09-13T11:56:35;17.60;;;4.10;;
55076;SDS011;40971;44.702;11.030;2022-09-13T11:59:20;7.28;;;3.00;;
55076;SDS011;40971;44.702;11.030;2022-09-13T12:01:51;8.38;;;2.97;;
55076;SDS011;40971;44.702;11.030;2022-09-13T12:04:23;8.02;;;3.03;;
55076;SDS011;40971;44.702;11.030;2022-09-13T12:06:56;10.60;;;3.00;;
55076;SDS011;40971;44.702;11.030;2022-09-13T12:09:30;9.10;;;2.30;;
55076;SDS011;40971;44.702;11.030;2022-09-13T12:12:09;7.70;;;2.33;;
55076;SDS011;40971;44.702;11.030;2022-09-13T12:14:41;8.10;;;2.67;;
55076;SDS011;40971;44.702;11.030;2022-09-13T12:17:18;8.27;;;2.20;;
55076;SDS011;40971;44.702;11.030;2022-09-13T12:19:59;4.90;;;1.92;;
55076;SDS011;40971;44.702;11.030;2022-09-13T12:22:31;13.30;;;2.40;;
55076;SDS011;40971;44.702;11.030;2022-09-13T12:25:16;8.13;;;2.10;;
55076;SDS011;40971;44.702;11.030;2022-09-13T12:30:21;5.57;;;1.90;;
55076;SDS011;40971;44.702;11.030;2022-09-13T12:32:57;11.23;;;2.08;;
55076;SDS011;40971;44.702;11.030;2022-09-13T12:38:20;8.35;;;1.90;;
55076;SDS011;40971;44.702;11.030;2022-09-13T12:43:44;5.07;;;1.98;;
55076;SDS011;40971;44.702;11.030;2022-09-13T13:00:10;7.43;;;1.95;;
55076;SDS011;40971;44.702;11.030;2022-09-13T13:02:44;6.10;;;1.90;;
55076;SDS011;40971;44.702;11.030;2022-09-13T13:05:25;12.85;;;2.22;;
55076;SDS011;40971;44.702;11.030;2022-09-13T13:07:56;8.25;;;2.10;;
55076;SDS011;40971;44.702;11.030;2022-09-13T13:10:33;6.93;;;2.35;;
55076;SDS011;40971;44.702;11.030;2022-09-13T13:15:53;6.25;;;1.98;;
55076;SDS011;40971;44.702;11.030;2022-09-13T13:18:24;6.85;;;1.90;;
55076;SDS011;40971;44.702;11.030;2022-09-13T13:36:28;14.80;;;2.38;;
55076;SDS011;40971;44.702;11.030;2022-09-13T13:41:51;5.22;;;1.63;;
55076;SDS011;40971;44.702;11.030;2022-09-13T13:46:54;6.30;;;1.73;;
55076;SDS011;40971;44.702;11.030;2022-09-13T13:57:30;6.07;;;1.55;;
55076;SDS011;40971;44.702;11.030;2022-09-13T14:00:10;7.72;;;1.70;;
55076;SDS011;40971;44.702;11.030;2022-09-13T14:05:19;9.90;;;1.70;;
55076;SDS011;40971;44.702;11.030;2022-09-13T14:15:51;5.68;;;1.52;;
55076;SDS011;40971;44.702;11.030;2022-09-13T14:20:56;5.65;;;1.80;;
55076;SDS011;40971;44.702;11.030;2022-09-13T14:23:48;9.50;;;1.70;;
55076;SDS011;40971;44.702;11.030;2022-09-13T14:26:14;7.20;;;1.50;;
55076;SDS011;40971;44.702;11.030;2022-09-13T14:28:40;14.80;;;1.88;;
55076;SDS011;40971;44.702;11.030;2022-09-13T14:31:05;7.90;;;1.77;;
55076;SDS011;40971;44.702;11.030;2022-09-13T14:33:32;6.07;;;1.50;;
55076;SDS011;40971;44.702;11.030;2022-09-13T14:38:31;6.03;;;1.90;;
55076;SDS011;40971;44.702;11.030;2022-09-13T14:43:37;7.53;;;1.80;;
55076;SDS011;40971;44.702;11.030;2022-09-13T14:46:05;12.75;;;1.92;;
55076;SDS011;40971;44.702;11.030;2022-09-13T14:53:32;5.18;;;1.50;;
55076;SDS011;40971;44.702;11.030;2022-09-13T14:56:01;6.07;;;1.52;;
55076;SDS011;40971;44.702;11.030;2022-09-13T14:58:37;5.50;;;1.70;;
55076;SDS011;40971;44.702;11.030;2022-09-13T15:01:09;8.90;;;1.70;;
55076;SDS011;40971;44.702;11.030;2022-09-13T15:03:44;5.00;;;1.42;;
55076;SDS011;40971;44.702;11.030;2022-09-13T15:06:19;7.72;;;1.60;;
55076;SDS011;40971;44.702;11.030;2022-09-13T15:08:47;5.97;;;1.50;;
55076;SDS011;40971;44.702;11.030;2022-09-13T15:11:34;9.15;;;1.88;;
55076;SDS011;40971;44.702;11.030;2022-09-13T15:14:45;5.53;;;1.52;;
55076;SDS011;40971;44.702;11.030;2022-09-13T15:16:57;7.07;;;1.70;;
55076;SDS011;40971;44.702;11.030;2022-09-13T15:19:35;3.88;;;1.35;;
55076;SDS011;40971;44.702;11.030;2022-09-13T15:24:52;8.00;;;1.55;;
55076;SDS011;40971;44.702;11.030;2022-09-13T15:29:55;6.35;;;1.38;;
55076;SDS011;40971;44.702;11.030;2022-09-13T15:34:59;4.15;;;1.15;;
55076;SDS011;40971;44.702;11.030;2022-09-13T15:37:34;24.08;;;1.70;;
55076;SDS011;40971;44.702;11.030;2022-09-13T15:42:35;6.95;;;1.55;;
55076;SDS011;40971;44.702;11.030;2022-09-13T15:45:01;3.38;;;1.20;;
55076;SDS011;40971;44.702;11.030;2022-09-13T15:47:26;7.18;;;1.40;;
55076;SDS011;40971;44.702;11.030;2022-09-13T15:49:52;9.38;;;1.50;;
55076;SDS011;40971;44.702;11.030;2022-09-13T15:52:18;16.75;;;1.73;;
55076;SDS011;40971;44.702;11.030;2022-09-13T15:54:45;8.48;;;1.50;;
55076;SDS011;40971;44.702;11.030;2022-09-13T15:57:17;7.45;;;1.55;;
55076;SDS011;40971;44.702;11.030;2022-09-13T15:59:46;9.13;;;1.63;;
55076;SDS011;40971;44.702;11.030;2022-09-13T16:04:45;5.53;;;1.45;;
55076;SDS011;40971;44.702;11.030;2022-09-13T16:07:10;10.35;;;1.70;;
55076;SDS011;40971;44.702;11.030;2022-09-13T16:09:36;7.82;;;1.60;;
55076;SDS011;40971;44.702;11.030;2022-09-13T16:12:03;13.30;;;1.90;;
55076;SDS011;40971;44.702;11.030;2022-09-13T16:14:28;10.77;;;1.70;;
55076;SDS011;40971;44.702;11.030;2022-09-13T16:16:54;7.28;;;1.70;;
55076;SDS011;40971;44.702;11.030;2022-09-13T16:19:20;9.38;;;1.20;;
55076;SDS011;40971;44.702;11.030;2022-09-13T16:21:47;6.50;;;1.50;;
55076;SDS011;40971;44.702;11.030;2022-09-13T16:24:13;7.18;;;1.35;;
55076;SDS011;40971;44.702;11.030;2022-09-13T16:26:40;7.43;;;1.63;;
55076;SDS011;40971;44.702;11.030;2022-09-13T16:29:06;5.22;;;1.25;;
55076;SDS011;40971;44.702;11.030;2022-09-13T16:31:32;8.55;;;1.50;;
55076;SDS011;40971;44.702;11.030;2022-09-13T16:33:58;9.23;;;1.70;;
55076;SDS011;40971;44.702;11.030;2022-09-13T16:36:23;9.70;;;1.75;;
55076;SDS011;40971;44.702;11.030;2022-09-13T16:38:51;10.00;;;1.55;;
55076;SDS011;40971;44.702;11.030;2022-09-13T16:41:17;8.82;;;1.80;;
55076;SDS011;40971;44.702;11.030;2022-09-13T16:43:42;5.57;;;1.40;;
55076;SDS011;40971;44.702;11.030;2022-09-13T16:46:08;8.85;;;1.85;;
55076;SDS011;40971;44.702;11.030;2022-09-13T16:48:35;9.48;;;1.52;;
55076;SDS011;40971;44.702;11.030;2022-09-13T16:51:08;10.98;;;1.60;;
55076;SDS011;40971;44.702;11.030;2022-09-13T16:53:35;6.93;;;1.48;;
55076;SDS011;40971;44.702;11.030;2022-09-13T16:56:03;7.03;;;1.63;;
55076;SDS011;40971;44.702;11.030;2022-09-13T16:58:40;6.82;;;1.70;;
55076;SDS011;40971;44.702;11.030;2022-09-13T17:01:08;7.80;;;1.70;;
55076;SDS011;40971;44.702;11.030;2022-09-13T17:03:36;12.15;;;1.40;;
55076;SDS011;40971;44.702;11.030;2022-09-13T17:06:03;8.88;;;1.67;;
55076;SDS011;40971;44.702;11.030;2022-09-13T17:08:30;7.70;;;1.80;;
55076;SDS011;40971;44.702;11.030;2022-09-13T17:10:57;5.78;;;1.67;;
55076;SDS011;40971;44.702;11.030;2022-09-13T17:13:23;11.55;;;1.80;;
55076;SDS011;40971;44.702;11.030;2022-09-13T17:15:48;9.90;;;2.13;;
55076;SDS011;40971;44.702;11.030;2022-09-13T17:18:14;6.40;;;1.52;;
55076;SDS011;40971;44.702;11.030;2022-09-13T17:20:46;8.85;;;1.67;;
55076;SDS011;40971;44.702;11.030;2022-09-13T17:23:13;7.53;;;1.50;;
55076;SDS011;40971;44.702;11.030;2022-09-13T17:25:40;7.03;;;1.60;;
55076;SDS011;40971;44.702;11.030;2022-09-13T17:28:16;23.50;;;2.13;;
55076;SDS011;40971;44.702;11.030;2022-09-13T17:30:43;9.15;;;1.83;;
55076;SDS011;40971;44.702;11.030;2022-09-13T17:33:10;7.93;;;1.73;;
55076;SDS011;40971;44.702;11.030;2022-09-13T17:35:36;6.35;;;1.40;;
55076;SDS011;40971;44.702;11.030;2022-09-13T17:38:02;9.50;;;1.95;;
55076;SDS011;40971;44.702;11.030;2022-09-13T17:40:28;10.75;;;1.88;;
55076;SDS011;40971;44.702;11.030;2022-09-13T17:42:55;19.80;;;1.55;;
55076;SDS011;40971;44.702;11.030;2022-09-13T17:45:21;21.98;;;2.30;;
55076;SDS011;40971;44.702;11.030;2022-09-13T17:47:47;8.60;;;1.55;;
55076;SDS011;40971;44.702;11.030;2022-09-13T17:50:15;7.68;;;1.77;;
55076;SDS011;40971;44.702;11.030;2022-09-13T17:52:41;18.38;;;2.00;;
55076;SDS011;40971;44.702;11.030;2022-09-13T17:55:07;12.23;;;1.80;;
55076;SDS011;40971;44.702;11.030;2022-09-13T17:57:33;10.05;;;1.80;;
55076;SDS011;40971;44.702;11.030;2022-09-13T17:59:58;8.00;;;1.80;;
55076;SDS011;40971;44.702;11.030;2022-09-13T18:02:24;12.40;;;2.33;;
55076;SDS011;40971;44.702;11.030;2022-09-13T18:04:51;5.68;;;1.85;;
55076;SDS011;40971;44.702;11.030;2022-09-13T18:07:17;10.63;;;1.80;;
55076;SDS011;40971;44.702;11.030;2022-09-13T18:09:43;7.75;;;1.83;;
55076;SDS011;40971;44.702;11.030;2022-09-13T18:12:09;6.10;;;1.65;;
55076;SDS011;40971;44.702;11.030;2022-09-13T18:14:36;8.05;;;2.17;;
55076;SDS011;40971;44.702;11.030;2022-09-13T18:17:02;8.80;;;2.60;;
55076;SDS011;40971;44.702;11.030;2022-09-13T18:19:35;9.77;;;2.60;;